AirNav   Air Wisconsin Up To $57,000 Bonus
 
 1253 users online  

40GA Smyrna Hospital Heliport
Smyrna, Georgia, USA

GOING TO SMYRNA?


FAA INFORMATION EFFECTIVE 19 MAY 2022

Location

FAA Identifier: 40GA
Lat/Long: 33-51-30.4700N 084-30-44.7500W
33-51.507833N 084-30.745833W
33.8584639,-84.5124306
(estimated)
Elevation: 930 ft. / 283.5 m (surveyed)
Variation: 02W (1985)
From city: 1 mile S of SMYRNA, GA
Time zone: UTC -4 (UTC -5 during Standard Time)
Zip code: 30080

Heliport Operations

Heliport use: Private use, MEDICAL.
Activation date: 10/1985
Control tower: no
ARTCC: ATLANTA CENTER
FSS: MACON FLIGHT SERVICE STATION
Attendance: CONTINUOUS
Wind indicator: yes
Segmented circle: no

Heliport Communications

WX ASOS at FTY (5 nm S): PHONE 404-696-5660
WX AWOS-3PT at RYY (10 nm NW): PHONE 770-425-3406
WX ASOS at PDK (11 nm E): 128.4 (770-457-1691)
WX ASOS at ATL (14 nm S): PHONE 404-559-5166

Nearby radio navigation aids

VOR radial/distance  VOR name  Freq  Var
PDKr269/10.7PEACHTREE VOR/DME116.6005W
ATLr349/14.3ATLANTA VORTAC116.9005W
RMGr120/35.3ROME VORTAC115.4001E

 
NDB name  Hdg/Dist  Freq  Var  ID
CHERO188/23.741505WDJD -.. .--- -..
PECAT003/33.531605WFFC ..-. ..-. -.-.
CARROLLTON064/35.527804WGPQ --. .--. --.-
FLOWERY BRANCH239/36.636503WFKV ..-. -.- ...-
COWETA COUNTY019/37.523403WEQQ . --.- --.-
ALCOVY294/38.937003WVOF ...- --- ..-.

Heliport Services

Runway Information

Helipad H1

Dimensions: 50 x 50 ft. / 15 x 15 m
Surface: concrete
Runway edge lights: low intensity
Latitude: 33-51.507833N
Longitude: 084-30.745833W
Elevation: 930.0 ft.
Traffic pattern: leftleft

Heliport Ownership and Management from official FAA records

Ownership: Privately-owned
Owner: EMORY ADVONTIST HOSPITAL
3949 S COBB DRIVE
SMYRNA, GA 30080
Phone 404-434-0710
Manager: ERNIE CARRINGER
3949 S COBB DRIVE
SMYRNA, GA 30080
Phone 404-434-0710

Additional Remarks

FOR CD CTC ATLANTA APCH AT 678-364-6131.

Instrument Procedures

There are no published instrument procedures at 40GA.

Some nearby airports with instrument procedures:

KMGE - Dobbins ARB Airport (3 nm N)
KFTY - Fulton County Executive Airport/Charlie Brown Field (5 nm S)
KRYY - Cobb County International Airport-McCollum Field (10 nm NW)
KPDK - Dekalb-Peachtree Airport (11 nm E)
KATL - Hartsfield - Jackson Atlanta International Airport (14 nm S)
 
Loc | Ops | Rwys | IFR | FBO | Links
Com | Nav | Svcs | Stats | Notes
Area around 40GA (Smyrna Hospital Heliport)
 
Road maps at: MapQuest Bing Google
 
Aerial photo
No photo
 
Sectional chart

 
Airport distance calculator
Flying to Smyrna Hospital Heliport? Find the distance to fly.

From to 40GA

Sunrise and sunset
Times for 27-May-2022
 Local
(UTC-4)
 Zulu
(UTC)
Morning civil twilight06:0310:03
Sunrise06:3110:31
Sunset20:3900:39
Evening civil twilight21:0801:08

Current date and time
Zulu (UTC)  27-May-2022 21:43:27
Local (UTC-4)  27-May-2022 17:43:27
 
METAR
KMGE 
3nm N 
272056Z 27009G20KT 10SM BKN060 26/13 A2985 RMK AO2A SLP101 T02620130 57009 $
KFTY 
5nm S 
272053Z 27009G17KT 220V290 10SM BKN065 27/13 A2986 RMK AO2 SLP104 T02670128 56009
KRYY 
10nm NW 
272050Z 25013G22KT 10SM BKN060 27/13 A2988 RMK AO2 SLP107 T02670133 56007 $
KPDK 
11nm E 
272053Z 25014G20KT 10SM FEW060 27/13 A2986 RMK AO2 SLP098 T02720133 56010
KATL 
14nm S 
272052Z 27012G20KT 10SM SCT055 SCT080 28/13 A2987 RMK AO2 SLP105 TCU DSNT SE MDT CU ALQDS T02780133 56010
TAF
KMGE 
3nm N 
271300Z 2713/2819 21009KT 9999 VCSH BKN009 QNH2990INS BECMG 2713/2714 22010G15KT 9999 VCSH BKN012 BKN040 QNH2992INS BECMG 2714/2715 22010G15KT 9999 VCSH SCT015 BKN040 QNH2991INS BECMG 2716/2717 26012G25KT 9999 NSW SCT035 QNH2985INS BECMG 2800/2801 29007KT 9999 FEW250 QNH2992INS TX26/2720Z TN15/2812Z
KFTY 
5nm S 
271720Z 2718/2818 24011G21KT P6SM SCT050 FM280000 29008KT P6SM FEW050 FM280200 30003KT P6SM FEW250
KRYY 
10nm NW 
271720Z 2718/2818 24010G20KT P6SM SCT050 FM280000 27006KT P6SM FEW040 FM280200 29004KT P6SM FEW250
KPDK 
11nm E 
271720Z 2718/2818 24010G20KT P6SM SCT050 FM280000 28008KT P6SM FEW050 FM280200 29003KT P6SM SKC
KATL 
14nm S 
271941Z 2720/2824 26012G22KT P6SM SCT050 FM280000 30007KT P6SM FEW050 FM280200 32004KT P6SM FEW250 FM281800 31006KT P6SM FEW050
NOTAMs
Click for the latest NOTAMs
NOTAMs are issued by the DoD/FAA and will open in a separate window not controlled by AirNav.

 

 
 

Would you like to see your business listed on this page?

 If your business provides an interesting product or service to pilots, flight crews, aircraft, or users of the Smyrna Hospital Heliport, you should consider listing it here.  To start the listing process, click on the button below
 
Add a business
 

Other Pages about Smyrna Hospital Heliport

Update a link
 
Copyright © AirNav, LLC. All rights reserved. Privacy Policy  Contact